Terminal Aerodrome Forecast
Issued by NWS Binghamton, NY

Home | Current Version | Previous Version | Text Only | Print | Product List | Glossary On
Versions: 1 2 3 4 5 6 7 8 9 10 11 12 13 14 15 16 17 18 19 20 21 22 23
185
FTUS41 KBGM 272331
TAFAVP
TAF
KAVP 272331Z 2800/2824 18010G17KT P6SM BKN040 OVC150
     FM280200 22008KT P6SM BKN100
      TEMPO 2804/2807 -SHRA OVC040
     FM280700 28006KT P6SM BKN025
     FM281200 26006KT P6SM BKN040
     FM281500 27008KT P6SM SCT060=

USA.gov is the U.S. government's official web portal to all federal, state and local government web resources and services.